Time;durP1;ratioP1;P1;durP2;ratioP2;P2;SDS_P1;SDS_P2;PMS_P1;PMS_P2;Temp;Humidity;BMP_temperature;BMP_pressure;BME280_temperature;BME280_humidity;BME280_pressure;Samples;Min_cycle;Max_cycle;Signal;HPM_P1;HPM_P2
2022/10/24 05:29:08;;;;;;;4.35;1.83;;;;;;;13.84;100.00;98600.06;5146140;27;20763;-77
2022/10/24 05:31:35;;;;;;;5.45;1.95;;;;;;;14.02;100.00;98602.06;5129412;27;20416;-77
2022/10/24 05:34:01;;;;;;;8.70;2.03;;;;;;;14.13;100.00;98617.72;5125625;27;20056;-77
2022/10/24 05:36:28;;;;;;;12.75;2.63;;;;;;;14.25;100.00;98627.97;5126488;27;20580;-77
2022/10/24 05:38:54;;;;;;;15.80;2.53;;;;;;;14.23;100.00;98621.88;5128600;27;20429;-77
2022/10/24 05:41:21;;;;;;;7.75;1.73;;;;;;;14.49;100.00;98650.91;5128771;27;20047;-77
2022/10/24 05:43:48;;;;;;;9.25;2.50;;;;;;;14.51;100.00;98651.50;5128021;27;20044;-77
2022/10/24 05:46:15;;;;;;;6.28;2.58;;;;;;;14.52;100.00;98636.78;5129042;27;20142;-77
2022/10/24 05:48:42;;;;;;;10.45;2.33;;;;;;;14.65;100.00;98642.16;5126810;27;20058;-77
2022/10/24 05:51:08;;;;;;;10.98;2.15;;;;;;;14.76;100.00;98643.34;5123246;27;20053;-77
2022/10/24 05:53:35;;;;;;;7.40;1.95;;;;;;;14.62;100.00;98625.38;5126082;27;20042;-77
2022/10/24 05:56:02;;;;;;;10.25;2.47;;;;;;;14.58;100.00;98646.00;5128341;27;20047;-77
2022/10/24 05:58:28;;;;;;;9.25;2.55;;;;;;;14.52;100.00;98648.53;5128552;27;20167;-77
2022/10/24 06:00:55;;;;;;;7.65;1.98;;;;;;;14.58;100.00;98681.56;5128327;27;20059;-77
2022/10/24 06:03:23;;;;;;;10.50;2.40;;;;;;;14.57;100.00;98718.16;5121321;27;20066;-77
2022/10/24 06:05:50;;;;;;;6.00;1.90;;;;;;;14.75;100.00;98722.91;5122925;27;20130;-77
2022/10/24 06:08:17;;;;;;;11.50;2.42;;;;;;;14.85;100.00;98704.09;5126256;27;20043;-77
2022/10/24 06:10:47;;;;;;;8.55;2.10;;;;;;;14.67;100.00;98683.81;5128044;27;20058;-77
2022/10/24 06:13:13;;;;;;;;;;;;;;;14.79;100.00;98727.69;5117568;27;20059;-77
2022/10/24 06:15:41;;;;;;;11.50;2.45;;;;;;;14.61;100.00;98735.84;5121224;27;20018;-77
2022/10/24 06:18:08;;;;;;;9.77;2.78;;;;;;;14.58;100.00;98734.34;5125591;27;20054;-77
2022/10/24 06:20:36;;;;;;;13.52;4.05;;;;;;;14.52;100.00;98751.66;5120403;28;20127;-76
2022/10/24 06:23:03;;;;;;;7.60;2.03;;;;;;;14.57;100.00;98773.69;5112785;27;20051;-76
2022/10/24 06:25:29;;;;;;;6.80;2.35;;;;;;;14.38;100.00;98734.50;5127535;27;20066;-76
2022/10/24 06:27:56;;;;;;;10.25;2.40;;;;;;;14.39;100.00;98751.75;5127810;27;20520;-76
2022/10/24 06:30:22;;;;;;;8.45;2.58;;;;;;;14.32;100.00;98710.78;5127924;27;20051;-76
2022/10/24 06:32:49;;;;;;;6.53;2.15;;;;;;;14.37;100.00;98685.50;5125010;27;20051;-76
2022/10/24 06:35:16;;;;;;;15.68;2.60;;;;;;;14.29;100.00;98689.34;5127703;27;20051;-76
2022/10/24 06:37:43;;;;;;;15.23;2.10;;;;;;;14.31;100.00;98701.72;5126512;27;20050;-76
2022/10/24 06:40:11;;;;;;;9.45;2.15;;;;;;;14.29;100.00;98703.03;5105606;27;20086;-76
2022/10/24 06:42:37;;;;;;;11.52;2.72;;;;;;;14.13;100.00;98687.97;5113094;28;20056;-76
2022/10/24 06:45:05;;;;;;;8.00;2.30;;;;;;;14.11;100.00;98715.50;5110445;28;20059;-76
2022/10/24 06:47:32;;;;;;;6.97;2.30;;;;;;;14.15;100.00;98721.38;5107127;28;20350;-76
2022/10/24 06:49:58;;;;;;;13.93;2.60;;;;;;;14.37;100.00;98729.25;5113800;28;20078;-76
2022/10/24 06:52:25;;;;;;;13.55;3.15;;;;;;;14.12;100.00;98703.53;5112995;28;20108;-76
2022/10/24 06:54:53;;;;;;;6.93;2.40;;;;;;;14.23;100.00;98702.00;5113788;28;20134;-76
2022/10/24 06:57:19;;;;;;;7.05;2.10;;;;;;;14.38;100.00;98736.38;5113940;27;20055;-77
2022/10/24 06:59:46;;;;;;;13.68;2.13;;;;;;;14.21;100.00;98728.72;5111505;28;20051;-76
2022/10/24 07:02:13;;;;;;;12.05;2.88;;;;;;;14.24;100.00;98741.09;5105437;28;20401;-77
2022/10/24 07:04:40;;;;;;;7.95;2.13;;;;;;;14.21;100.00;98736.06;5108056;28;20413;-76
2022/10/24 07:07:07;;;;;;;9.00;2.03;;;;;;;14.16;100.00;98736.72;5113483;28;20054;-77
2022/10/24 07:09:33;;;;;;;8.75;2.40;;;;;;;14.30;100.00;98756.63;5111917;28;20044;-76
2022/10/24 07:12:01;;;;;;;9.15;2.67;;;;;;;14.21;100.00;98733.34;5113194;28;20055;-76
2022/10/24 07:14:27;;;;;;;11.65;2.50;;;;;;;14.11;100.00;98753.78;5109166;28;20050;-76
2022/10/24 07:16:54;;;;;;;8.50;2.95;;;;;;;14.15;100.00;98787.84;5108625;28;20051;-76
2022/10/24 07:19:20;;;;;;;10.57;3.00;;;;;;;14.26;100.00;98782.75;5109875;28;20048;-76
2022/10/24 07:21:47;;;;;;;9.73;2.40;;;;;;;14.08;100.00;98756.97;5109342;28;20044;-76
2022/10/24 07:24:14;;;;;;;9.13;2.47;;;;;;;14.12;100.00;98727.28;5112827;28;20469;-76
2022/10/24 07:26:40;;;;;;;5.28;2.53;;;;;;;14.12;100.00;98709.00;5112988;28;20113;-76
2022/10/24 07:29:08;;;;;;;11.40;3.33;;;;;;;14.30;100.00;98740.22;5111076;28;20052;-76
2022/10/24 07:31:36;;;;;;;11.18;2.92;;;;;;;14.12;100.00;98730.88;5113198;28;20054;-76
2022/10/24 07:34:05;;;;;;;6.75;2.42;;;;;;;14.21;100.00;98741.53;5110105;28;20043;-76
2022/10/24 07:36:31;;;;;;;13.00;3.65;;;;;;;14.30;100.00;98762.09;5112921;28;20147;-77
2022/10/24 07:38:59;;;;;;;8.77;2.60;;;;;;;14.38;100.00;98763.72;5109289;28;20121;-76
2022/10/24 07:41:27;;;;;;;8.77;2.63;;;;;;;14.41;100.00;98752.38;5112616;28;20047;-76
2022/10/24 07:43:54;;;;;;;10.75;2.67;;;;;;;14.40;100.00;98743.31;5109978;28;20075;-76
2022/10/24 07:46:23;;;;;;;8.13;2.20;;;;;;;14.49;100.00;98720.09;5112871;28;20419;-76
2022/10/24 07:48:50;;;;;;;8.93;2.03;;;;;;;14.41;100.00;98700.41;5112303;28;20075;-77
2022/10/24 07:51:17;;;;;;;7.38;2.60;;;;;;;14.43;100.00;98688.19;5093459;28;20101;-77
2022/10/24 07:53:44;;;;;;;7.95;2.00;;;;;;;14.41;100.00;98692.22;5111191;28;20044;-77
2022/10/24 07:56:14;;;;;;;9.25;1.80;;;;;;;14.41;100.00;98681.28;5108675;28;20040;-77
2022/10/24 07:58:42;;;;;;;6.07;2.03;;;;;;;14.37;100.00;98680.84;5112323;28;20044;-77
2022/10/24 08:01:11;;;;;;;7.85;2.03;;;;;;;14.50;100.00;98724.53;5112550;28;20057;-77
2022/10/24 08:03:39;;;;;;;8.35;2.28;;;;;;;14.52;100.00;98733.34;5111770;28;20406;-77
2022/10/24 08:06:07;;;;;;;5.60;1.95;;;;;;;14.41;100.00;98719.56;5110768;28;20044;-77
2022/10/24 08:08:34;;;;;;;12.38;2.35;;;;;;;14.56;100.00;98743.84;5090290;28;20054;-77
2022/10/24 08:11:00;;;;;;;11.25;2.40;;;;;;;14.59;100.00;98725.09;5092485;28;20059;-77
2022/10/24 08:13:27;;;;;;;9.85;2.65;;;;;;;14.77;100.00;98756.34;5101992;28;20043;-77
2022/10/24 08:15:55;;;;;;;8.50;2.47;;;;;;;14.73;100.00;98755.13;5112159;28;20577;-77
2022/10/24 08:18:21;;;;;;;9.98;2.30;;;;;;;14.77;100.00;98740.78;5112119;28;20479;-77
2022/10/24 08:20:58;;;;;;;7.63;3.03;;;;;;;14.82;100.00;98754.63;5111847;28;20058;-77
2022/10/24 08:23:26;;;;;;;10.00;2.13;;;;;;;14.75;100.00;98763.94;5110409;28;20448;-77
2022/10/24 08:25:52;;;;;;;8.52;2.10;;;;;;;14.65;100.00;98743.38;5095753;28;20067;-77
2022/10/24 08:28:19;;;;;;;5.35;2.00;;;;;;;14.67;100.00;98735.78;5110597;28;20052;-77
2022/10/24 08:30:54;;;;;;;6.63;1.63;;;;;;;14.67;100.00;98721.28;5110277;28;20104;-77
2022/10/24 08:33:21;;;;;;;9.05;1.90;;;;;;;14.88;100.00;98730.19;5111354;28;20047;-77
2022/10/24 08:35:48;;;;;;;10.82;2.92;;;;;;;14.75;100.00;98712.78;5111945;28;20049;-77
2022/10/24 08:38:15;;;;;;;8.77;1.83;;;;;;;14.69;100.00;98697.25;5111819;28;20048;-77
2022/10/24 08:40:42;;;;;;;8.45;2.30;;;;;;;14.92;100.00;98728.66;5105882;28;20043;-77
2022/10/24 08:43:11;;;;;;;6.60;1.90;;;;;;;14.79;100.00;98722.22;5108599;28;20074;-77
2022/10/24 08:45:47;;;;;;;7.85;2.63;;;;;;;14.92;100.00;98732.25;5111514;28;20048;-77
2022/10/24 08:48:19;;;;;;;5.15;1.52;;;;;;;14.86;100.00;98716.72;5109434;28;20051;-77
2022/10/24 08:50:53;;;;;;;6.70;2.00;;;;;;;15.00;100.00;98714.69;5111526;28;20126;-77
2022/10/24 08:53:26;;;;;;;9.52;1.85;;;;;;;14.99;100.00;98691.13;5109589;28;20044;-77
2022/10/24 08:55:55;;;;;;;6.97;2.00;;;;;;;15.18;100.00;98731.16;5100115;28;20059;-77
2022/10/24 08:58:25;;;;;;;5.80;1.65;;;;;;;15.26;100.00;98724.53;5104084;28;20051;-77
2022/10/24 09:00:55;;;;;;;9.63;2.50;;;;;;;15.30;100.00;98733.97;5110939;28;20101;-77
2022/10/24 09:03:27;;;;;;;6.78;2.30;;;;;;;15.31;100.00;98715.63;5104270;28;20077;-77
2022/10/24 09:05:57;;;;;;;5.63;1.65;;;;;;;15.38;100.00;98741.06;5098004;28;20140;-77
2022/10/24 09:08:34;;;;;;;10.05;2.33;;;;;;;15.33;100.00;98732.69;5109650;28;20292;-77
2022/10/24 09:11:02;;;;;;;6.97;1.80;;;;;;;15.07;100.00;98710.00;5111435;28;20055;-77
2022/10/24 09:13:30;;;;;;;5.90;1.33;;;;;;;15.15;100.00;98726.13;5108331;28;20130;-77
2022/10/24 09:15:57;;;;;;;4.68;1.42;;;;;;;14.98;100.00;98722.28;5110868;28;20194;-77
2022/10/24 09:18:27;;;;;;;4.43;1.50;;;;;;;15.10;100.00;98749.75;5104324;28;20059;-77
2022/10/24 09:20:54;;;;;;;4.47;1.70;;;;;;;14.95;100.00;98733.66;5089914;28;20058;-77
2022/10/24 09:23:23;;;;;;;5.97;1.40;;;;;;;15.03;100.00;98750.66;5109242;28;20050;-77
2022/10/24 09:25:53;;;;;;;4.90;1.33;;;;;;;15.09;100.00;98765.34;5110875;28;20044;-77
2022/10/24 09:28:20;;;;;;;;;;;;;;;15.00;100.00;98770.25;5107517;28;20047;-77
2022/10/24 09:30:47;;;;;;;6.32;1.60;;;;;;;15.05;100.00;98777.81;5110881;28;19927;-77
2022/10/24 09:33:30;;;;;;;10.65;1.60;;;;;;;15.00;100.00;98781.22;5110253;28;20048;-77
2022/10/24 09:35:59;;;;;;;9.02;2.45;;;;;;;15.03;100.00;98788.97;5103719;28;20126;-77
2022/10/24 09:38:32;;;;;;;11.35;2.17;;;;;;;14.93;100.00;98768.66;5106239;28;20405;-77
2022/10/24 09:41:03;;;;;;;5.43;1.60;;;;;;;14.99;100.00;98787.75;5110732;28;20058;-77
2022/10/24 09:43:47;;;;;;;10.68;1.88;;;;;;;14.80;100.00;98750.44;5107470;28;20571;-77
2022/10/24 09:46:16;;;;;;;11.02;2.38;;;;;;;14.99;100.00;98773.22;5100565;28;20048;-77
2022/10/24 09:48:51;;;;;;;8.65;1.77;;;;;;;14.88;100.00;98754.81;5110823;28;20055;-77
2022/10/24 09:51:22;;;;;;;9.75;1.88;;;;;;;14.86;100.00;98772.28;5101406;28;20090;-77
2022/10/24 09:54:01;;;;;;;7.00;1.77;;;;;;;14.73;100.00;98746.91;5089066;28;20059;-77
2022/10/24 09:56:36;;;;;;;9.15;1.60;;;;;;;14.83;100.00;98760.94;5102445;28;20054;-77
2022/10/24 09:59:31;;;;;;;4.45;1.80;;;;;;;14.74;100.00;98741.22;5110871;28;20058;-77
2022/10/24 10:02:17;;;;;;;9.35;2.03;;;;;;;14.81;100.00;98760.31;5110387;28;20063;-77
2022/10/24 10:04:45;;;;;;;3.45;1.60;;;;;;;15.00;100.00;98767.53;5110732;28;20130;-77
2022/10/24 10:07:14;;;;;;;4.72;1.50;;;;;;;14.93;100.00;98752.22;5110673;28;20138;-78
2022/10/24 10:09:50;;;;;;;11.65;2.22;;;;;;;14.84;100.00;98748.94;5100866;28;20040;-77
2022/10/24 10:12:28;;;;;;;6.95;1.70;;;;;;;15.07;100.00;98794.00;5104797;28;20056;-78
2022/10/24 10:14:55;;;;;;;7.95;3.25;;;;;;;15.02;100.00;98764.56;5112660;28;20055;-78
2022/10/24 10:17:24;;;;;;;7.75;1.65;;;;;;;15.09;100.00;98767.25;5111649;28;20048;-78
2022/10/24 10:19:52;;;;;;;9.98;2.47;;;;;;;15.21;100.00;98779.16;5108900;28;20043;-77
2022/10/24 10:22:25;;;;;;;3.92;1.52;;;;;;;15.27;100.00;98791.13;5113505;28;20135;-78
2022/10/24 10:24:52;;;;;;;6.50;1.52;;;;;;;15.15;100.00;98756.25;5114071;27;20139;-78
2022/10/24 10:27:30;;;;;;;7.40;2.72;;;;;;;15.14;100.00;98759.19;5093701;28;20506;-77
2022/10/24 10:30:17;;;;;;;9.35;2.40;;;;;;;15.32;100.00;98759.22;5093397;28;20044;-77
2022/10/24 10:32:53;;;;;;;5.43;1.60;;;;;;;15.40;100.00;98750.75;5104363;28;20120;-77
2022/10/24 10:35:24;;;;;;;7.95;2.95;;;;;;;15.43;100.00;98745.88;5108604;27;20410;-78
2022/10/24 10:37:58;;;;;;;8.68;1.80;;;;;;;15.44;100.00;98753.03;5113940;28;20048;-78
2022/10/24 10:40:32;;;;;;;10.52;1.90;;;;;;;15.50;100.00;98766.63;5108493;28;20043;-78
2022/10/24 10:43:28;;;;;;;3.47;1.38;;;;;;;15.48;100.00;98757.81;5093155;28;20044;-78
2022/10/24 10:46:10;;;;;;;6.55;2.03;;;;;;;15.53;100.00;98757.97;5093539;28;20058;-78
2022/10/24 10:48:48;;;;;;;6.28;1.85;;;;;;;15.65;100.00;98768.19;5098206;28;20555;-78
2022/10/24 10:51:28;;;;;;;6.20;1.83;;;;;;;15.68;100.00;98768.56;5113787;28;20039;-78
2022/10/24 10:54:01;;;;;;;7.25;1.80;;;;;;;15.82;100.00;98766.56;5103638;28;20070;-78
2022/10/24 10:56:34;;;;;;;7.85;1.65;;;;;;;15.90;100.00;98777.19;5105551;28;20047;-77
2022/10/24 10:59:18;;;;;;;7.40;1.40;;;;;;;15.97;100.00;98789.97;5100768;28;20459;-77
2022/10/24 11:01:55;;;;;;;8.32;1.83;;;;;;;15.97;100.00;98787.25;5092539;28;20063;-78
2022/10/24 11:04:32;;;;;;;5.75;1.70;;;;;;;16.01;100.00;98800.25;5109614;28;20051;-77
2022/10/24 11:07:05;;;;;;;5.03;1.50;;;;;;;16.01;100.00;98800.25;5113355;28;20326;-77
2022/10/24 11:09:36;;;;;;;7.07;1.77;;;;;;;15.85;100.00;98777.06;5110752;28;20054;-77
2022/10/24 11:12:09;;;;;;;6.63;1.67;;;;;;;16.04;100.00;98807.19;5109289;28;20423;-78
2022/10/24 11:14:40;;;;;;;8.82;1.55;;;;;;;15.75;100.00;98780.28;5092939;28;20089;-77
2022/10/24 11:17:14;;;;;;;7.88;1.33;;;;;;;15.84;100.00;98794.56;5093163;28;20550;-78
2022/10/24 11:19:49;;;;;;;4.93;1.85;;;;;;;15.92;100.00;98799.72;5099084;28;20047;-78
2022/10/24 11:22:20;;;;;;;3.53;1.10;;;;;;;15.96;100.00;98800.13;5112595;28;20047;-78
2022/10/24 11:24:55;;;;;;;6.90;1.77;;;;;;;15.86;100.00;98781.44;5111757;28;20055;-77
2022/10/24 11:27:28;;;;;;;8.25;1.38;;;;;;;15.87;100.00;98787.78;5105303;28;20075;-78
2022/10/24 11:30:03;;;;;;;8.00;1.25;;;;;;;15.98;100.00;98806.19;5108086;28;20044;-77
2022/10/24 11:32:37;;;;;;;6.50;1.58;;;;;;;16.10;100.00;98815.34;5105665;28;20130;-77
2022/10/24 11:35:16;;;;;;;3.25;1.10;;;;;;;16.02;100.00;98788.22;5112757;28;20051;-77
2022/10/24 11:37:46;;;;;;;5.30;1.20;;;;;;;16.14;100.00;98809.38;5113331;28;20048;-77
2022/10/24 11:40:16;;;;;;;;;;;;;;;16.19;100.00;98809.56;5113558;28;20047;-77
2022/10/24 11:42:48;;;;;;;;;;;;;;;16.18;100.00;98813.34;5112513;28;20013;-77
2022/10/24 11:45:19;;;;;;;6.28;1.30;;;;;;;16.11;100.00;98802.47;5113091;28;19942;-78
2022/10/24 11:47:55;;;;;;;4.05;1.63;;;;;;;16.16;100.00;98797.13;5105503;28;20126;-77
2022/10/24 11:50:28;;;;;;;3.92;1.42;;;;;;;16.20;100.00;98803.84;5103504;28;20606;-78
2022/10/24 11:53:00;;;;;;;4.88;1.75;;;;;;;16.28;100.00;98802.69;5111852;28;20055;-77
2022/10/24 11:55:36;;;;;;;9.35;0.80;;;;;;;16.22;100.00;98774.25;5113018;28;20048;-78
2022/10/24 11:58:06;;;;;;;5.25;1.48;;;;;;;16.36;100.00;98798.78;5112561;28;20047;-78
2022/10/24 12:00:52;;;;;;;4.50;1.33;;;;;;;16.37;100.00;98804.03;5105674;28;20078;-78
2022/10/24 12:03:47;;;;;;;4.90;0.93;;;;;;;16.23;100.00;98764.97;5106205;28;20417;-78
2022/10/24 12:06:34;;;;;;;2.10;0.90;;;;;;;16.49;100.00;98792.28;5110843;28;20177;-78
2022/10/24 12:09:14;;;;;;;3.85;1.00;;;;;;;16.58;100.00;98788.97;5111133;28;20048;-78
2022/10/24 12:12:01;;;;;;;11.73;1.92;;;;;;;16.48;100.00;98779.63;5112206;28;20044;-78
2022/10/24 12:14:42;;;;;;;3.22;0.95;;;;;;;16.57;100.00;98784.53;5106917;28;20407;-78
2022/10/24 12:17:38;;;;;;;1.52;1.10;;;;;;;16.63;100.00;98772.66;5111762;28;20048;-78
2022/10/24 12:20:11;;;;;;;3.92;1.17;;;;;;;16.43;100.00;98750.16;5112182;28;20138;-78
2022/10/24 12:22:41;;;;;;;3.20;0.98;;;;;;;16.66;100.00;98776.81;5109741;28;20130;-77
2022/10/24 12:25:19;;;;;;;4.60;1.60;;;;;;;16.63;100.00;98769.03;5109718;28;20051;-78
2022/10/24 12:27:54;;;;;;;3.95;1.10;;;;;;;16.67;100.00;98766.69;5111737;28;20498;-78
2022/10/24 12:30:24;;;;;;;6.72;1.80;;;;;;;16.48;100.00;98754.94;5094924;27;20047;-78
2022/10/24 12:32:55;;;;;;;4.50;1.00;;;;;;;16.44;100.00;98749.09;5110900;28;20043;-78
2022/10/24 12:35:45;;;;;;;3.83;1.45;;;;;;;16.57;100.00;98748.84;5112082;28;20176;-78
2022/10/24 12:38:19;;;;;;;2.13;0.95;;;;;;;16.53;100.00;98736.69;5111475;28;20039;-78
2022/10/24 12:40:55;;;;;;;2.65;1.20;;;;;;;16.69;100.00;98746.16;5105541;28;20118;-78
2022/10/24 12:43:31;;;;;;;5.70;1.33;;;;;;;16.69;100.00;98753.56;5110908;28;20139;-78
2022/10/24 12:46:00;;;;;;;4.82;1.10;;;;;;;16.67;100.00;98764.78;5109898;28;20051;-78
2022/10/24 12:48:35;;;;;;;2.90;0.70;;;;;;;16.53;100.00;98728.47;5111319;28;20052;-78
2022/10/24 12:51:22;;;;;;;1.75;1.08;;;;;;;16.49;100.00;98734.66;5111555;28;20052;-78
2022/10/24 12:54:14;;;;;;;3.60;1.48;;;;;;;16.64;100.00;98746.03;5105267;28;20056;-78
2022/10/24 12:57:14;;;;;;;7.45;0.95;;;;;;;16.71;100.00;98762.38;5098285;28;20043;-78
2022/10/24 12:59:47;;;;;;;5.63;1.10;;;;;;;16.69;100.00;98745.31;5104710;28;20063;-78
2022/10/24 13:02:28;;;;;;;10.43;1.27;;;;;;;16.75;100.00;98761.69;5110763;28;20557;-78
2022/10/24 13:05:09;;;;;;;7.88;1.27;;;;;;;16.81;100.00;98768.16;5110960;28;20047;-78
2022/10/24 13:07:59;;;;;;;4.88;1.30;;;;;;;16.94;100.00;98756.16;5107339;28;20044;-78
2022/10/24 13:10:45;;;;;;;6.10;1.20;;;;;;;16.95;100.00;98750.44;5110792;28;20413;-78
2022/10/24 13:13:54;;;;;;;4.93;1.30;;;;;;;17.01;100.00;98747.78;5104864;28;20134;-78
2022/10/24 13:16:32;;;;;;;4.20;1.17;;;;;;;17.15;100.00;98763.81;5111335;28;20058;-78
2022/10/24 13:19:09;;;;;;;4.93;1.10;;;;;;;17.06;100.00;98726.78;5096609;28;20479;-78
2022/10/24 13:21:46;;;;;;;2.22;1.10;;;;;;;17.22;100.00;98741.72;5091266;28;20108;-78
2022/10/24 13:24:27;;;;;;;3.90;1.15;;;;;;;17.26;100.00;98755.81;5100086;28;20047;-78
2022/10/24 13:27:26;;;;;;;4.65;1.30;;;;;;;17.30;100.00;98752.34;5110880;28;20505;-78
2022/10/24 13:30:01;;;;;;;4.18;1.10;;;;;;;17.30;100.00;98751.53;5107763;28;20053;-78
2022/10/24 13:32:34;;;;;;;3.00;1.40;;;;;;;17.20;100.00;98740.28;5090290;28;20130;-78
2022/10/24 13:35:02;;;;;;;5.53;1.20;;;;;;;17.20;100.00;98743.88;5092256;28;20110;-78
2022/10/24 13:37:35;;;;;;;5.85;1.25;;;;;;;17.29;100.00;98767.16;5109662;28;20055;-78
2022/10/24 13:40:09;;;;;;;3.03;1.00;;;;;;;17.16;100.00;98746.28;5110759;28;20055;-78
2022/10/24 13:42:40;;;;;;;4.18;0.98;;;;;;;17.17;100.00;98772.63;5110283;28;20044;-78
2022/10/24 13:45:21;;;;;;;4.35;1.30;;;;;;;17.10;100.00;98758.22;5111059;28;20410;-78
2022/10/24 13:47:51;;;;;;;6.15;0.88;;;;;;;17.04;100.00;98753.66;5105328;28;20048;-78
2022/10/24 13:50:21;;;;;;;4.07;0.90;;;;;;;17.19;100.00;98766.09;5112392;28;20186;-78
2022/10/24 13:52:53;;;;;;;;;;;;;;;17.13;100.00;98767.88;5110175;28;20067;-78
2022/10/24 13:55:25;;;;;;;2.90;0.90;;;;;;;17.07;100.00;98742.22;5094925;28;19923;-78
2022/10/24 13:57:59;;;;;;;3.90;1.38;;;;;;;17.06;100.00;98745.19;5094489;28;20055;-78
2022/10/24 14:00:28;;;;;;;6.15;1.17;;;;;;;17.24;100.00;98763.47;5094996;28;20082;-78
2022/10/24 14:02:58;;;;;;;1.95;1.20;;;;;;;17.29;100.00;98769.06;5096761;28;20052;-78
2022/10/24 14:05:31;;;;;;;3.33;1.15;;;;;;;17.26;100.00;98766.81;5107357;28;20046;-78
2022/10/24 14:08:00;;;;;;;5.82;1.33;;;;;;;17.13;100.00;98745.88;5109548;28;20043;-78
2022/10/24 14:10:27;;;;;;;4.93;1.50;;;;;;;17.18;100.00;98765.25;5095622;28;20134;-78
2022/10/24 14:12:56;;;;;;;3.15;1.08;;;;;;;17.14;100.00;98753.88;5093564;28;20475;-78
2022/10/24 14:15:26;;;;;;;1.90;0.77;;;;;;;17.19;100.00;98768.81;5108231;28;20047;-78
2022/10/24 14:17:59;;;;;;;3.95;1.30;;;;;;;17.21;100.00;98770.28;5110789;28;20056;-78
2022/10/24 14:20:28;;;;;;;2.05;0.80;;;;;;;17.31;100.00;98783.41;5114271;28;20046;-78
2022/10/24 14:22:55;;;;;;;9.18;1.92;;;;;;;17.32;100.00;98782.34;5113683;28;20044;-78
2022/10/24 14:25:30;;;;;;;2.40;1.00;;;;;;;17.16;100.00;98750.91;5114272;28;20054;-78
2022/10/24 14:28:00;;;;;;;3.70;1.00;;;;;;;17.10;100.00;98757.34;5110216;28;20082;-78
2022/10/24 14:30:29;;;;;;;2.22;1.02;;;;;;;17.02;100.00;98755.78;5105767;28;20130;-78
2022/10/24 14:33:07;;;;;;;2.97;1.35;;;;;;;17.06;100.00;98772.66;5113624;28;20044;-78
2022/10/24 14:35:34;;;;;;;6.05;1.23;;;;;;;16.96;100.00;98765.81;5106858;28;20047;-78
2022/10/24 14:38:01;;;;;;;3.42;1.60;;;;;;;16.97;100.00;98777.66;5114109;28;20459;-78
2022/10/24 14:40:31;;;;;;;8.63;2.58;;;;;;;16.88;100.00;98757.09;5114282;28;20058;-78
2022/10/24 14:42:58;;;;;;;5.47;1.05;;;;;;;16.93;100.00;98774.53;5109733;28;20058;-78
2022/10/24 14:45:28;;;;;;;6.05;1.60;;;;;;;16.79;100.00;98748.34;5106753;28;20151;-78
2022/10/24 14:47:57;;;;;;;4.80;1.10;;;;;;;16.97;100.00;98775.72;5113951;28;20132;-78
2022/10/24 14:50:36;;;;;;;8.27;2.03;;;;;;;17.07;99.65;98774.31;5104973;28;20044;-78
2022/10/24 14:53:03;;;;;;;4.65;1.05;;;;;;;17.02;100.00;98747.56;5113015;28;20055;-78
2022/10/24 14:55:32;;;;;;;3.92;1.13;;;;;;;17.19;100.00;98753.19;5110125;28;20079;-78
2022/10/24 14:57:58;;;;;;;10.35;1.08;;;;;;;17.33;98.90;98746.38;5097558;28;20071;-78
2022/10/24 15:00:28;;;;;;;3.15;1.00;;;;;;;17.19;97.84;98741.38;5092751;28;20055;-77
2022/10/24 15:02:58;;;;;;;2.55;0.85;;;;;;;17.11;97.38;98750.78;5092540;28;20471;-77
2022/10/24 15:05:29;;;;;;;;;;;;;;;17.07;99.12;98768.81;5093530;28;20048;-78
2022/10/24 15:08:01;;;;;;;3.35;0.80;;;;;;;16.92;100.00;98752.78;5098671;28;20282;-78
2022/10/24 15:10:37;;;;;;;4.03;1.02;;;;;;;16.98;99.27;98758.19;5101032;28;20047;-78
2022/10/24 15:13:11;;;;;;;4.57;1.70;;;;;;;16.96;97.96;98773.22;5109747;28;20052;-78
2022/10/24 15:15:51;;;;;;;4.75;1.20;;;;;;;16.84;98.06;98766.84;5112519;28;20054;-78
2022/10/24 15:18:21;;;;;;;6.40;1.02;;;;;;;16.63;100.00;98763.56;5113769;27;20104;-77
2022/10/24 15:20:49;;;;;;;1.83;0.90;;;;;;;16.57;100.00;98770.81;5113131;28;20040;-77
2022/10/24 15:23:21;;;;;;;3.75;0.90;;;;;;;16.47;100.00;98770.56;5112874;28;20419;-77
2022/10/24 15:25:58;;;;;;;2.53;1.00;;;;;;;16.52;100.00;98783.59;5101429;28;20044;-77
2022/10/24 15:28:38;;;;;;;5.10;1.20;;;;;;;16.32;100.00;98753.66;5110067;28;20166;-77
2022/10/24 15:31:09;;;;;;;1.85;0.95;;;;;;;16.35;100.00;98769.66;5092878;28;20040;-77
2022/10/24 15:33:36;;;;;;;5.60;2.67;;;;;;;16.35;100.00;98776.00;5106873;28;20090;-77
2022/10/24 15:36:02;;;;;;;4.63;1.40;;;;;;;16.14;100.00;98760.88;5112781;27;20048;-77
2022/10/24 15:38:29;;;;;;;4.00;1.00;;;;;;;16.06;100.00;98774.91;5113090;28;20051;-78
2022/10/24 15:40:57;;;;;;;5.25;1.23;;;;;;;16.03;100.00;98780.84;5104848;28;20048;-77
2022/10/24 15:43:24;;;;;;;6.63;0.82;;;;;;;15.83;100.00;98778.34;5104399;28;20448;-77
2022/10/24 15:45:51;;;;;;;6.38;0.85;;;;;;;15.79;100.00;98797.13;5110558;28;20492;-77
2022/10/24 15:48:18;;;;;;;3.88;1.60;;;;;;;15.74;100.00;98796.94;5113322;28;20051;-78
2022/10/24 15:50:46;;;;;;;4.47;1.10;;;;;;;15.64;100.00;98788.41;5112671;28;20043;-77
2022/10/24 15:53:16;;;;;;;1.90;0.80;;;;;;;15.55;100.00;98777.78;5112151;28;20312;-77
2022/10/24 15:55:43;;;;;;;1.95;1.27;;;;;;;15.56;100.00;98793.13;5107161;28;20117;-78
2022/10/24 15:58:13;;;;;;;4.72;1.65;;;;;;;15.51;100.00;98795.72;5109548;28;20071;-78
2022/10/24 16:00:40;;;;;;;2.53;1.17;;;;;;;15.36;100.00;98792.50;5111746;28;20044;-77
2022/10/24 16:03:08;;;;;;;7.38;1.10;;;;;;;15.32;100.00;98799.47;5112026;28;20078;-77
2022/10/24 16:05:38;;;;;;;6.80;1.10;;;;;;;15.27;100.00;98793.84;5106494;28;20039;-79
